Time;durP1;ratioP1;P1;durP2;ratioP2;P2;SDS_P1;SDS_P2;PMS_P1;PMS_P2;Temp;Humidity;BMP_temperature;BMP_pressure;BME280_temperature;BME280_humidity;BME280_pressure;Samples;Min_cycle;Max_cycle;Signal;HPM_P1;HPM_P2
2023/03/29 00:00:21;;;;;;;43.92;19.65;;;-2.20;11.20;;;;;;2621322;46;20881;31
2023/03/29 00:03:03;;;;;;;39.90;18.20;;;-2.20;13.90;;;;;;2602826;54;20050;31
2023/03/29 00:05:40;;;;;;;43.63;18.93;;;-2.20;1.00;;;;;;2603284;54;20315;31
2023/03/29 00:08:17;;;;;;;43.67;20.90;;;-2.20;1.00;;;;;;2603336;54;21213;31
2023/03/29 00:10:58;;;;;;;43.47;21.23;;;-2.20;8.40;;;;;;2603417;54;20866;31
2023/03/29 00:13:37;;;;;;;44.35;18.05;;;-2.30;5.10;;;;;;2602489;54;20041;31
2023/03/29 00:16:14;;;;;;;46.10;21.55;;;-2.50;1.00;;;;;;2602421;54;20072;31
2023/03/29 00:18:53;;;;;;;48.08;23.33;;;-2.30;10.50;;;;;;2603465;54;20022;31
2023/03/29 00:21:30;;;;;;;46.80;23.10;;;-2.30;6.70;;;;;;2603387;54;20053;31
2023/03/29 00:24:06;;;;;;;48.72;24.45;;;-2.30;13.90;;;;;;2621803;46;20119;31
2023/03/29 00:26:45;;;;;;;60.72;26.75;;;-2.30;22.60;;;;;;2603263;54;20937;31
2023/03/29 00:29:20;;;;;;;59.00;25.25;;;-2.40;30.70;;;;;;2603263;54;20837;31
2023/03/29 00:31:57;;;;;;;58.90;27.95;;;-2.40;28.50;;;;;;2603037;54;20034;31
2023/03/29 00:34:35;;;;;;;74.40;31.43;;;-2.20;33.70;;;;;;2603226;54;20877;31
2023/03/29 00:37:13;;;;;;;74.20;28.83;;;-2.50;38.20;;;;;;2603204;54;21279;31
2023/03/29 00:39:47;;;;;;;77.83;31.50;;;-2.30;34.40;;;;;;2602581;54;22412;31
2023/03/29 00:42:28;;;;;;;72.90;29.50;;;-2.50;39.30;;;;;;2603189;54;20023;31
2023/03/29 00:45:06;;;;;;;79.70;32.50;;;-2.40;26.60;;;;;;2603321;54;19941;31
2023/03/29 00:47:44;;;;;;;72.88;30.35;;;-2.30;23.20;;;;;;2603485;54;20941;31
2023/03/29 00:50:24;;;;;;;69.20;27.65;;;-2.60;23.80;;;;;;2603209;54;20145;31
2023/03/29 00:53:03;;;;;;;66.07;28.73;;;-2.60;14.80;;;;;;2621819;46;20966;31
2023/03/29 00:55:38;;;;;;;76.47;31.30;;;-2.60;13.50;;;;;;2603208;54;20023;31
2023/03/29 00:58:23;;;;;;;66.55;29.08;;;-2.70;17.70;;;;;;2621781;46;20049;31
2023/03/29 01:03:34;;;;;;;69.40;30.73;;;;;;;;;;2603304;54;20031;31
2023/03/29 01:06:12;;;;;;;67.97;32.88;;;;;;;;;;2603172;54;20918;31
2023/03/29 01:08:50;;;;;;;72.45;31.35;;;;;;;;;;2621680;46;20034;31
2023/03/29 01:11:28;;;;;;;69.75;30.05;;;-3.00;44.40;;;;;;2621655;46;20858;31
2023/03/29 01:14:12;;;;;;;65.97;30.03;;;-2.80;45.00;;;;;;2603073;54;20030;31
2023/03/29 01:16:49;;;;;;;68.10;29.60;;;-2.80;35.10;;;;;;2603217;54;20839;31
2023/03/29 01:19:29;;;;;;;67.78;29.00;;;-2.80;38.10;;;;;;2603056;54;20876;31
2023/03/29 01:22:08;;;;;;;52.97;23.75;;;-2.80;17.10;;;;;;2603116;54;20138;31
2023/03/29 01:24:43;;;;;;;63.08;25.25;;;-2.90;14.40;;;;;;2603091;54;20900;31
2023/03/29 01:27:22;;;;;;;61.83;26.00;;;-2.90;22.00;;;;;;2791366;31;20762;31
2023/03/29 01:30:05;;;;;;;58.95;24.35;;;-2.90;29.20;;;;;;2603890;54;20881;31
2023/03/29 01:32:44;;;;;;;53.85;23.52;;;-2.90;37.40;;;;;;2720900;39;20466;31
2023/03/29 01:35:23;;;;;;;55.33;22.97;;;-2.90;36.50;;;;;;2603183;54;20037;31
2023/03/29 01:38:01;;;;;;;42.10;20.98;;;-3.00;12.90;;;;;;2603732;54;20026;31
2023/03/29 01:40:41;;;;;;;46.20;20.10;;;-3.10;19.60;;;;;;2603817;54;19941;31
2023/03/29 01:43:24;;;;;;;45.28;20.25;;;-3.00;26.30;;;;;;2620035;46;20753;31
2023/03/29 01:46:06;;;;;;;41.30;19.30;;;-3.00;25.90;;;;;;2702278;39;21371;31
2023/03/29 01:48:40;;;;;;;44.15;18.52;;;;;;;;;;2604008;54;20052;31
2023/03/29 01:51:16;;;;;;;41.58;19.67;;;;;;;;;;2622291;46;20026;31
2023/03/29 01:53:52;;;;;;;;;;;-3.00;44.00;;;;;;2622436;46;20031;31
2023/03/29 01:56:28;;;;;;;46.83;20.00;;;-3.00;45.10;;;;;;2622528;46;19935;31
2023/03/29 01:59:03;;;;;;;40.10;17.73;;;;;;;;;;2602970;54;20754;31
2023/03/29 02:01:47;;;;;;;42.73;17.97;;;;;;;;;;2603777;54;20093;31
2023/03/29 02:04:27;;;;;;;45.20;20.05;;;-3.10;55.00;;;;;;2622325;46;20031;31
2023/03/29 02:07:02;;;;;;;44.83;19.90;;;-3.10;51.90;;;;;;2603685;54;20108;31
2023/03/29 02:09:47;;;;;;;40.70;20.40;;;-3.10;51.40;;;;;;2615056;46;20785;31
2023/03/29 02:12:25;;;;;;;43.85;19.80;;;-3.20;37.50;;;;;;2603060;54;20948;31
2023/03/29 02:15:01;;;;;;;46.38;20.73;;;-3.30;48.80;;;;;;2648443;31;20611;31
2023/03/29 02:17:42;;;;;;;48.47;23.02;;;-3.20;64.90;;;;;;2603877;54;20038;31
2023/03/29 02:20:21;;;;;;;47.55;20.40;;;;;;;;;;2603766;54;20081;31
2023/03/29 02:23:03;;;;;;;48.95;21.90;;;-3.20;52.60;;;;;;2622387;46;20759;31
2023/03/29 02:28:14;;;;;;;48.47;21.85;;;-3.30;64.30;;;;;;2702372;39;21417;31
2023/03/29 02:30:53;;;;;;;41.00;20.90;;;-3.20;62.30;;;;;;2603638;54;21006;31
2023/03/29 02:33:37;;;;;;;51.20;23.55;;;-3.30;57.80;;;;;;2603911;54;20044;31
2023/03/29 02:36:14;;;;;;;46.10;20.90;;;;;;;;;;2603601;54;20869;31
2023/03/29 02:38:50;;;;;;;41.97;20.30;;;;;;;;;;2603604;54;20085;31
2023/03/29 02:41:26;;;;;;;48.10;21.40;;;;;;;;;;2603698;54;20895;31
2023/03/29 02:44:06;;;;;;;45.42;20.58;;;-3.10;37.50;;;;;;2603721;54;20026;31
2023/03/29 02:46:41;;;;;;;48.05;22.45;;;;;;;;;;2603813;54;20026;31
2023/03/29 02:49:21;;;;;;;44.93;20.27;;;;;;;;;;2603751;54;20591;31
2023/03/29 02:51:56;;;;;;;42.55;21.35;;;;;;;;;;2720740;39;21899;31
2023/03/29 02:54:31;;;;;;;50.70;20.50;;;;;;;;;;2603534;54;21610;31
2023/03/29 02:57:09;;;;;;;43.57;21.00;;;-3.10;40.10;;;;;;2622170;46;20895;31
2023/03/29 02:59:50;;;;;;;44.67;21.52;;;-3.10;40.60;;;;;;2622526;46;20038;31
2023/03/29 03:02:26;;;;;;;44.78;20.67;;;-3.60;49.20;;;;;;2603719;54;20027;31
2023/03/29 03:05:07;;;;;;;46.65;21.48;;;-3.20;52.90;;;;;;2603454;54;20835;31
2023/03/29 03:07:45;;;;;;;46.07;21.13;;;-3.30;71.00;;;;;;2603514;54;20049;31
2023/03/29 03:10:23;;;;;;;42.50;22.63;;;-3.30;88.00;;;;;;2603480;54;20738;31
2023/03/29 03:12:59;;;;;;;44.63;21.10;;;-3.40;87.40;;;;;;2603600;54;20038;31
2023/03/29 03:15:41;;;;;;;44.60;21.90;;;;;;;;;;2603606;54;20042;31
2023/03/29 03:18:17;;;;;;;52.47;21.43;;;;;;;;;;2622295;46;20030;31
2023/03/29 03:21:03;;;;;;;47.13;23.40;;;-3.30;83.40;;;;;;2622177;46;21810;31
2023/03/29 03:23:44;;;;;;;41.67;20.08;;;-3.30;86.70;;;;;;2621537;46;20541;31
2023/03/29 03:26:21;;;;;;;45.60;21.60;;;;;;;;;;2602790;54;20077;31
2023/03/29 03:28:55;;;;;;;42.35;21.85;;;-3.30;90.90;;;;;;2602878;54;20981;31
2023/03/29 03:31:51;;;;;;;43.08;20.00;;;;;;;;;;2603535;54;20048;31
2023/03/29 03:34:48;;;;;;;43.22;19.75;;;-3.20;82.60;;;;;;2603862;54;20063;31
2023/03/29 03:37:27;;;;;;;47.03;19.13;;;-3.30;82.70;;;;;;2603280;54;20031;31
2023/03/29 03:40:04;;;;;;;48.20;22.83;;;-2.20;80.90;;;;;;2622140;46;20598;31
2023/03/29 03:42:41;;;;;;;37.20;17.75;;;-3.40;80.50;;;;;;2791934;31;20609;31
2023/03/29 03:45:20;;;;;;;39.90;17.95;;;-3.30;75.30;;;;;;2603647;54;20026;31
2023/03/29 03:48:09;;;;;;;38.83;19.15;;;-3.20;75.00;;;;;;2603473;54;20813;31
2023/03/29 03:50:55;;;;;;;44.22;22.15;;;-3.20;64.00;;;;;;2603283;54;20639;31
2023/03/29 03:53:37;;;;;;;42.00;19.95;;;-3.20;81.20;;;;;;2603305;54;20026;31
2023/03/29 03:56:24;;;;;;;40.13;19.95;;;-3.20;74.90;;;;;;2603634;54;20034;31
2023/03/29 03:59:29;;;;;;;40.25;20.65;;;-3.00;90.90;;;;;;2603417;54;20057;31
2023/03/29 04:02:16;;;;;;;45.05;21.30;;;-3.30;96.00;;;;;;2621907;46;20052;31
2023/03/29 04:04:53;;;;;;;40.50;22.75;;;-3.30;93.70;;;;;;2603303;54;20060;31
2023/03/29 04:07:34;;;;;;;43.20;19.85;;;-3.20;92.90;;;;;;2603355;54;20034;31
2023/03/29 04:10:40;;;;;;;48.90;22.95;;;-3.20;92.90;;;;;;2720486;39;20489;31
2023/03/29 04:13:23;;;;;;;40.58;19.73;;;-3.20;99.30;;;;;;2603373;54;20988;31
2023/03/29 04:16:21;;;;;;;38.58;18.25;;;-3.20;98.60;;;;;;2621880;46;20836;31
2023/03/29 04:18:57;;;;;;;40.80;20.00;;;-3.20;99.90;;;;;;2603314;54;20752;31
2023/03/29 04:21:38;;;;;;;36.57;18.70;;;-3.20;99.80;;;;;;2603394;54;20027;31
2023/03/29 04:24:14;;;;;;;39.05;18.83;;;-3.10;99.90;;;;;;2603327;54;20254;31
2023/03/29 04:27:03;;;;;;;42.60;20.25;;;-3.10;98.50;;;;;;2621682;46;20032;31
2023/03/29 04:29:43;;;;;;;37.78;19.70;;;-3.10;99.90;;;;;;2603440;54;20080;31
2023/03/29 04:32:26;;;;;;;39.10;19.58;;;-3.10;99.90;;;;;;2603087;54;20031;31
2023/03/29 04:35:12;;;;;;;39.35;19.35;;;-3.10;99.90;;;;;;2603233;54;20023;31
2023/03/29 04:37:50;;;;;;;40.40;19.60;;;-3.00;99.90;;;;;;2603356;54;20045;31
2023/03/29 04:40:30;;;;;;;37.95;19.08;;;-3.00;99.80;;;;;;2603440;54;20026;31
2023/03/29 04:43:28;;;;;;;40.63;17.95;;;-2.90;98.60;;;;;;2603124;54;20120;31
2023/03/29 04:46:28;;;;;;;35.65;18.20;;;-2.90;99.90;;;;;;2603036;54;20101;31
2023/03/29 04:49:26;;;;;;;42.38;19.35;;;-2.90;99.90;;;;;;2603299;54;20102;31
2023/03/29 04:52:02;;;;;;;31.47;14.93;;;-2.80;99.80;;;;;;2602629;54;20030;31
2023/03/29 04:54:39;;;;;;;34.33;19.10;;;-2.30;98.60;;;;;;2603411;54;20249;31
2023/03/29 04:57:19;;;;;;;40.70;21.73;;;-2.80;99.90;;;;;;2701830;39;20473;31
2023/03/29 05:00:32;;;;;;;37.78;18.27;;;-2.70;99.30;;;;;;2603116;54;19938;31
2023/03/29 05:05:49;;;;;;;48.10;23.80;;;-2.60;99.20;;;;;;2603042;54;20887;31
2023/03/29 05:08:26;;;;;;;52.40;24.27;;;-2.60;98.50;;;;;;2602997;54;20037;31
2023/03/29 05:11:16;;;;;;;50.17;27.27;;;-2.50;97.50;;;;;;2603361;54;20939;31
2023/03/29 05:13:59;;;;;;;64.30;36.05;;;-2.40;94.30;;;;;;2603371;54;20180;31
2023/03/29 05:16:41;;;;;;;71.30;36.53;;;-2.30;96.10;;;;;;2603061;54;20031;31
2023/03/29 05:19:20;;;;;;;85.18;45.30;;;-2.30;96.10;;;;;;2621600;47;20023;31
2023/03/29 05:21:56;;;;;;;60.70;33.50;;;-2.30;95.00;;;;;;2621615;47;20030;31
2023/03/29 05:24:32;;;;;;;44.97;26.77;;;;;;;;;;2719633;39;20597;31
2023/03/29 05:27:14;;;;;;;43.72;24.95;;;-2.10;91.20;;;;;;2602790;54;20022;31
2023/03/29 05:29:51;;;;;;;41.40;21.13;;;-2.10;92.20;;;;;;2603048;54;20075;31
2023/03/29 05:32:51;;;;;;;60.00;24.47;;;-1.90;92.50;;;;;;2602906;54;20856;31
2023/03/29 05:35:32;;;;;;;79.70;30.27;;;-2.20;97.80;;;;;;2602825;54;20938;31
2023/03/29 05:38:10;;;;;;;149.93;50.60;;;-1.90;97.30;;;;;;2603070;54;20929;31
2023/03/29 05:40:50;;;;;;;152.80;48.90;;;-1.90;96.50;;;;;;2701477;39;20420;31
2023/03/29 05:44:01;;;;;;;87.00;31.38;;;-1.90;98.90;;;;;;2602947;54;20936;31
2023/03/29 05:46:38;;;;;;;118.25;37.42;;;;;;;;;;2612548;47;20022;31
2023/03/29 05:49:27;;;;;;;84.20;30.35;;;-1.60;98.90;;;;;;2602953;54;20900;31
2023/03/29 05:52:15;;;;;;;68.30;24.90;;;-1.30;99.10;;;;;;2621171;47;20166;31
2023/03/29 05:54:53;;;;;;;110.05;35.95;;;-1.30;99.00;;;;;;2602961;54;20758;31
2023/03/29 05:57:30;;;;;;;90.88;30.48;;;-0.70;99.10;;;;;;2602930;54;20809;31
2023/03/29 06:00:18;;;;;;;162.70;50.10;;;-0.10;90.10;;;;;;2602861;54;20038;31
2023/03/29 06:03:09;;;;;;;152.82;49.58;;;0.00;89.10;;;;;;2602798;54;20136;31
2023/03/29 06:06:03;;;;;;;175.43;56.13;;;0.60;77.80;;;;;;2603062;54;20030;31
2023/03/29 06:08:40;;;;;;;78.90;28.05;;;1.30;68.90;;;;;;2602873;54;20816;31
2023/03/29 06:11:31;;;;;;;39.20;17.30;;;2.20;54.60;;;;;;2602652;54;20026;31
2023/03/29 06:14:23;;;;;;;185.85;59.00;;;2.80;37.60;;;;;;2621701;47;20060;31
2023/03/29 06:17:12;;;;;;;155.68;52.80;;;3.30;25.20;;;;;;2603947;54;19950;31
2023/03/29 06:19:52;;;;;;;111.07;40.97;;;1.30;23.20;;;;;;2603830;54;20033;31
2023/03/29 06:22:37;;;;;;;85.00;33.15;;;;;;;;;;2622322;46;20022;31
2023/03/29 06:25:19;;;;;;;93.25;41.10;;;3.80;9.60;;;;;;2622088;46;20911;31
2023/03/29 06:28:00;;;;;;;61.63;28.10;;;4.10;3.60;;;;;;2622494;46;20044;31
2023/03/29 06:30:35;;;;;;;33.30;18.05;;;4.30;1.00;;;;;;2603581;54;21206;31
2023/03/29 06:33:13;;;;;;;31.87;15.47;;;4.40;1.00;;;;;;2621893;46;20044;31
2023/03/29 06:36:12;;;;;;;22.00;14.18;;;4.50;1.00;;;;;;2603495;54;21081;31
2023/03/29 06:38:54;;;;;;;25.60;14.50;;;4.70;1.00;;;;;;2603504;54;20026;31
2023/03/29 06:41:49;;;;;;;23.70;13.50;;;4.80;1.00;;;;;;2603742;54;20050;31
2023/03/29 06:44:42;;;;;;;26.23;14.95;;;5.00;1.00;;;;;;2603507;54;20103;31
2023/03/29 06:47:29;;;;;;;24.75;12.10;;;5.30;1.00;;;;;;2603460;54;20042;31
2023/03/29 06:50:07;;;;;;;23.83;13.35;;;5.50;1.00;;;;;;2603546;54;20054;31
2023/03/29 06:52:52;;;;;;;19.67;11.18;;;5.70;1.00;;;;;;2603710;54;20076;31
2023/03/29 06:58:03;;;;;;;20.90;11.20;;;6.10;1.00;;;;;;2621778;46;20085;31
2023/03/29 07:00:41;;;;;;;28.58;11.55;;;6.50;1.00;;;;;;2603434;54;20134;31
2023/03/29 07:03:35;;;;;;;19.00;10.70;;;6.90;1.00;;;;;;2621803;46;20168;31
2023/03/29 07:06:13;;;;;;;23.30;10.45;;;7.30;1.00;;;;;;2603435;54;20030;31
2023/03/29 07:08:52;;;;;;;19.48;10.32;;;7.50;1.00;;;;;;2602850;54;20875;31
2023/03/29 07:11:48;;;;;;;20.80;9.80;;;7.40;1.00;;;;;;2622013;46;20085;31
2023/03/29 07:14:43;;;;;;;22.42;9.70;;;7.30;1.00;;;;;;2603414;54;20582;31
2023/03/29 07:17:21;;;;;;;20.33;9.67;;;7.20;1.00;;;;;;2603559;54;20052;31
2023/03/29 07:19:56;;;;;;;;;;;7.00;1.00;;;;;;2622337;46;20851;31
2023/03/29 07:22:49;;;;;;;16.55;9.23;;;7.00;1.00;;;;;;2603597;54;20038;31
2023/03/29 07:25:28;;;;;;;14.52;7.18;;;6.80;1.00;;;;;;2603018;54;20852;31
2023/03/29 07:28:10;;;;;;;18.85;8.40;;;6.70;1.00;;;;;;2621656;46;20078;31
2023/03/29 07:30:49;;;;;;;14.27;8.60;;;6.70;1.00;;;;;;2603381;54;20027;31
2023/03/29 07:33:28;;;;;;;25.48;9.27;;;6.60;1.00;;;;;;2603365;54;20107;31
2023/03/29 07:36:11;;;;;;;16.77;6.75;;;6.70;1.00;;;;;;2603469;54;19941;31
2023/03/29 07:38:47;;;;;;;16.92;6.90;;;6.90;99.90;;;;;;2603614;54;20048;31
2023/03/29 07:41:26;;;;;;;17.80;8.13;;;7.20;99.90;;;;;;2603317;54;20930;31
2023/03/29 07:44:17;;;;;;;16.92;7.45;;;7.50;99.90;;;;;;2603292;54;20038;31
2023/03/29 07:46:58;;;;;;;20.10;7.55;;;7.80;99.90;;;;;;2603377;54;20132;31
2023/03/29 07:49:33;;;;;;;16.73;7.30;;;8.00;99.90;;;;;;2602522;54;20748;31
2023/03/29 07:52:09;;;;;;;13.00;6.30;;;8.20;99.90;;;;;;2603356;54;20030;31
2023/03/29 07:54:44;;;;;;;12.90;7.20;;;8.20;99.90;;;;;;2622040;46;20816;31
2023/03/29 07:57:31;;;;;;;20.13;8.57;;;8.40;99.90;;;;;;2603355;54;20763;31
2023/03/29 08:00:14;;;;;;;12.93;6.78;;;8.50;99.90;;;;;;2603508;54;20026;31
2023/03/29 08:03:06;;;;;;;15.10;7.05;;;8.70;99.90;;;;;;2603280;54;20861;31
2023/03/29 08:05:42;;;;;;;16.52;6.93;;;8.90;99.90;;;;;;2603343;54;20038;31
2023/03/29 08:08:24;;;;;;;14.65;6.70;;;9.00;99.90;;;;;;2603414;54;20855;31
2023/03/29 08:11:05;;;;;;;17.67;6.90;;;9.00;99.90;;;;;;2701902;39;20490;31
2023/03/29 08:13:59;;;;;;;19.08;6.70;;;9.30;99.90;;;;;;2773199;31;20526;31
2023/03/29 08:16:35;;;;;;;15.80;6.90;;;9.40;99.90;;;;;;2603315;54;21304;31
2023/03/29 08:19:19;;;;;;;14.73;6.60;;;9.40;19.00;;;;;;2701730;39;20548;31
2023/03/29 08:22:08;;;;;;;11.30;5.05;;;9.50;15.80;;;;;;2603301;54;20026;31
2023/03/29 08:27:43;;;;;;;15.25;4.50;;;9.70;1.00;;;;;;2603293;54;20022;31
2023/03/29 08:30:24;;;;;;;25.33;9.53;;;9.60;34.20;;;;;;2603352;54;20027;31
2023/03/29 08:33:01;;;;;;;15.43;6.10;;;9.50;1.00;;;;;;2603286;54;20085;31
2023/03/29 08:35:43;;;;;;;16.48;7.50;;;9.50;50.70;;;;;;2603257;54;20100;31
2023/03/29 08:38:31;;;;;;;20.27;5.50;;;9.40;67.80;;;;;;2603337;54;20026;31
2023/03/29 08:41:13;;;;;;;12.32;5.25;;;9.40;56.00;;;;;;2603123;54;20096;31
2023/03/29 08:43:54;;;;;;;12.35;4.72;;;9.20;84.00;;;;;;2603483;54;20906;31
2023/03/29 08:46:49;;;;;;;14.30;4.20;;;9.10;46.10;;;;;;2603393;54;20149;31
2023/03/29 08:49:40;;;;;;;10.32;4.40;;;9.10;18.40;;;;;;2613312;46;20081;31
2023/03/29 08:52:29;;;;;;;8.60;4.18;;;9.20;1.00;;;;;;2603276;54;20889;31
2023/03/29 08:55:19;;;;;;;10.50;3.53;;;9.20;1.00;;;;;;2603173;54;20022;31
2023/03/29 08:58:27;;;;;;;7.82;3.70;;;9.30;16.00;;;;;;2603578;54;20081;31
2023/03/29 09:01:07;;;;;;;10.13;3.70;;;9.30;1.00;;;;;;2603226;54;20091;31
2023/03/29 09:04:05;;;;;;;8.57;2.75;;;9.30;1.00;;;;;;2603318;54;20026;31
2023/03/29 09:07:05;;;;;;;5.38;2.72;;;9.50;1.00;;;;;;2603077;54;20048;31
2023/03/29 09:09:51;;;;;;;7.93;2.72;;;9.70;1.00;;;;;;2603296;54;20871;31
2023/03/29 09:12:54;;;;;;;7.55;2.90;;;10.20;1.00;;;;;;2603293;54;20895;31
2023/03/29 09:15:32;;;;;;;12.32;7.22;;;10.30;1.00;;;;;;2603251;54;20023;31
2023/03/29 09:18:32;;;;;;;10.13;3.08;;;10.30;1.00;;;;;;2603276;54;20865;31
2023/03/29 09:21:13;;;;;;;6.72;3.13;;;10.50;1.00;;;;;;2602886;54;21736;31
2023/03/29 09:24:01;;;;;;;8.55;4.72;;;11.00;1.00;;;;;;2603174;54;20023;31
2023/03/29 09:26:50;;;;;;;;;;;11.20;1.00;;;;;;2621858;47;20027;31
2023/03/29 09:29:49;;;;;;;9.63;3.42;;;11.50;1.00;;;;;;2603143;54;20747;31
2023/03/29 09:32:31;;;;;;;11.07;3.23;;;12.00;1.00;;;;;;2602880;54;19989;31
2023/03/29 09:35:17;;;;;;;9.05;3.10;;;12.20;1.00;;;;;;2603081;54;20097;31
2023/03/29 09:37:57;;;;;;;7.68;3.15;;;12.30;1.00;;;;;;2603180;54;21698;31
2023/03/29 09:40:35;;;;;;;9.35;3.70;;;12.60;1.00;;;;;;2602939;54;20030;31
2023/03/29 09:43:25;;;;;;;6.25;2.85;;;13.00;31.60;;;;;;2602980;54;20034;31
2023/03/29 09:46:05;;;;;;;7.53;3.72;;;13.00;1.00;;;;;;2602882;54;20026;31
2023/03/29 09:48:46;;;;;;;11.88;3.47;;;13.20;2.80;;;;;;2603101;54;20209;31
2023/03/29 09:51:24;;;;;;;8.37;3.30;;;13.40;1.00;;;;;;2622103;46;20019;31
2023/03/29 09:54:01;;;;;;;8.88;3.95;;;13.50;1.00;;;;;;2603871;54;20027;31
2023/03/29 09:57:05;;;;;;;6.18;3.35;;;13.70;81.60;;;;;;2604062;54;20034;31
2023/03/29 09:59:45;;;;;;;7.82;3.75;;;13.80;99.90;;;;;;2603851;54;20023;31
2023/03/29 10:02:22;;;;;;;11.95;3.80;;;14.00;99.90;;;;;;2702532;39;21105;31
2023/03/29 10:04:59;;;;;;;8.15;3.60;;;14.00;94.90;;;;;;2603663;54;20030;31
2023/03/29 10:07:43;;;;;;;8.77;3.73;;;13.80;99.90;;;;;;2603831;54;20031;31
2023/03/29 10:10:23;;;;;;;7.53;4.17;;;13.60;99.90;;;;;;2622385;46;20234;31
2023/03/29 10:13:07;;;;;;;10.10;4.17;;;13.50;99.90;;;;;;2604026;54;20023;31
2023/03/29 10:15:45;;;;;;;;;;;13.40;99.90;;;;;;2603404;54;20045;31
2023/03/29 10:18:21;;;;;;;13.13;3.15;;;13.40;99.90;;;;;;2622676;46;19934;31
2023/03/29 10:21:03;;;;;;;11.25;3.75;;;13.40;99.90;;;;;;2622056;46;20962;31
2023/03/29 10:23:39;;;;;;;7.55;3.80;;;13.30;99.90;;;;;;2603852;54;20119;31
2023/03/29 10:26:27;;;;;;;8.13;3.42;;;13.20;99.90;;;;;;2603814;54;20917;31
2023/03/29 10:29:08;;;;;;;9.80;4.20;;;13.00;99.90;;;;;;2603695;54;20808;31
2023/03/29 10:31:49;;;;;;;11.10;3.50;;;12.90;99.90;;;;;;2613661;46;20298;31
2023/03/29 10:34:27;;;;;;;6.78;3.03;;;12.70;99.90;;;;;;2603700;54;20030;31
2023/03/29 10:37:07;;;;;;;5.60;2.70;;;12.70;99.90;;;;;;2603432;54;20081;31
2023/03/29 10:39:43;;;;;;;8.50;3.15;;;12.60;99.90;;;;;;2603039;54;20031;31
2023/03/29 10:42:21;;;;;;;7.57;3.10;;;12.50;99.90;;;;;;2603686;54;20775;31
2023/03/29 10:44:56;;;;;;;7.77;3.50;;;12.50;99.90;;;;;;2603770;54;20030;31
2023/03/29 10:47:36;;;;;;;9.50;3.40;;;12.40;99.90;;;;;;2603692;54;20926;31
2023/03/29 10:50:14;;;;;;;7.40;3.35;;;12.40;99.90;;;;;;2602792;54;20030;31
2023/03/29 10:52:52;;;;;;;9.65;3.42;;;12.40;99.90;;;;;;2603586;54;20823;31
2023/03/29 10:55:27;;;;;;;8.20;3.50;;;12.40;99.90;;;;;;2622379;46;20805;31
2023/03/29 10:58:06;;;;;;;8.48;2.90;;;12.30;99.90;;;;;;2603530;54;20026;31
2023/03/29 11:00:45;;;;;;;5.75;3.38;;;12.30;99.90;;;;;;2603486;54;20034;31
2023/03/29 11:03:43;;;;;;;8.55;3.08;;;12.20;99.90;;;;;;2603653;54;20108;31
2023/03/29 11:06:21;;;;;;;7.37;3.30;;;12.20;99.90;;;;;;2621965;46;20104;31
2023/03/29 11:08:59;;;;;;;9.18;3.50;;;12.20;99.90;;;;;;2603568;54;20034;31
2023/03/29 11:11:57;;;;;;;9.27;3.55;;;12.10;99.90;;;;;;2603628;54;20836;31
2023/03/29 11:14:58;;;;;;;8.07;3.00;;;11.90;99.90;;;;;;2603560;54;20030;31
2023/03/29 11:17:42;;;;;;;5.50;2.85;;;11.80;99.90;;;;;;2603677;54;20085;31
2023/03/29 11:20:36;;;;;;;10.45;3.15;;;11.80;99.90;;;;;;2607291;46;20095;31
2023/03/29 11:23:22;;;;;;;6.20;2.30;;;11.90;99.90;;;;;;2603593;54;20816;31
2023/03/29 11:26:04;;;;;;;5.53;2.97;;;12.00;99.90;;;;;;2603284;54;20355;31
2023/03/29 11:28:42;;;;;;;6.57;2.95;;;12.00;99.90;;;;;;2621813;46;20038;31
2023/03/29 11:31:21;;;;;;;6.90;3.35;;;12.00;99.90;;;;;;2603372;54;20049;31
2023/03/29 11:34:03;;;;;;;6.82;3.65;;;12.10;99.90;;;;;;2622060;46;20022;31
2023/03/29 11:36:49;;;;;;;8.88;3.42;;;12.10;99.90;;;;;;2603640;54;20864;31
2023/03/29 11:39:31;;;;;;;7.15;3.55;;;12.10;99.90;;;;;;2603552;54;20156;31
2023/03/29 11:42:08;;;;;;;7.25;3.35;;;12.10;99.90;;;;;;2603844;54;20942;31
2023/03/29 11:44:45;;;;;;;4.85;3.05;;;12.10;99.90;;;;;;2603608;54;20839;31
2023/03/29 11:47:22;;;;;;;11.55;3.35;;;12.10;99.90;;;;;;2603327;54;20033;31
2023/03/29 11:50:01;;;;;;;7.22;3.00;;;12.20;99.90;;;;;;2603451;54;20026;31
2023/03/29 11:52:36;;;;;;;6.65;3.17;;;12.30;99.90;;;;;;2603583;54;20027;31
2023/03/29 11:55:16;;;;;;;8.47;3.30;;;12.40;99.90;;;;;;2603464;54;20910;31
2023/03/29 11:57:55;;;;;;;10.63;3.03;;;12.40;99.90;;;;;;2621770;46;20267;31
2023/03/29 12:00:32;;;;;;;8.45;3.90;;;12.50;99.90;;;;;;2603270;54;20879;31
2023/03/29 12:03:12;;;;;;;8.48;4.00;;;12.70;99.90;;;;;;2603597;54;20077;31
2023/03/29 12:05:51;;;;;;;8.07;2.95;;;12.70;99.90;;;;;;2602826;54;20034;31
2023/03/29 12:08:28;;;;;;;6.10;2.97;;;12.70;99.90;;;;;;2603448;54;20030;31
2023/03/29 12:11:08;;;;;;;6.28;3.17;;;12.60;99.90;;;;;;2621809;46;20061;31
2023/03/29 12:13:46;;;;;;;6.82;3.00;;;12.60;99.90;;;;;;2621809;46;20030;31
2023/03/29 12:16:24;;;;;;;13.23;4.78;;;12.60;99.90;;;;;;2603400;54;20057;31
2023/03/29 12:19:01;;;;;;;5.47;3.30;;;12.60;99.90;;;;;;2621827;46;20026;31
2023/03/29 12:21:37;;;;;;;6.57;3.22;;;12.50;99.90;;;;;;2603375;54;20081;31
2023/03/29 12:24:14;;;;;;;6.22;3.03;;;12.40;99.90;;;;;;2603334;54;20161;31
2023/03/29 12:27:10;;;;;;;4.80;3.00;;;12.50;99.90;;;;;;2603457;54;20030;31
2023/03/29 12:30:19;;;;;;;6.03;2.60;;;12.50;99.90;;;;;;2603440;54;20068;31
2023/03/29 12:33:10;;;;;;;7.07;3.22;;;12.60;99.90;;;;;;2603148;54;19942;31
2023/03/29 12:36:12;;;;;;;7.00;3.27;;;12.50;99.90;;;;;;2603342;54;20026;31
2023/03/29 12:39:10;;;;;;;5.20;2.70;;;12.50;64.30;;;;;;2603378;54;20889;31
2023/03/29 12:42:15;;;;;;;;;;;12.60;99.90;;;;;;2603522;54;20048;31
2023/03/29 12:45:34;;;;;;;4.13;2.35;;;12.50;99.90;;;;;;2603217;54;19934;31
2023/03/29 12:48:15;;;;;;;8.15;3.40;;;12.50;99.90;;;;;;2621737;46;20085;31
2023/03/29 12:50:49;;;;;;;5.85;2.20;;;12.40;99.90;;;;;;2603283;54;20026;31
2023/03/29 12:53:28;;;;;;;6.10;3.15;;;12.20;99.90;;;;;;2603357;54;20085;31
2023/03/29 12:56:11;;;;;;;6.78;2.80;;;12.20;99.90;;;;;;2603251;54;20917;31
2023/03/29 12:58:55;;;;;;;7.00;2.90;;;12.00;99.90;;;;;;2603173;54;20819;31
2023/03/29 13:01:32;;;;;;;7.80;3.05;;;11.90;99.90;;;;;;2603195;54;20957;31
2023/03/29 13:04:20;;;;;;;5.82;2.70;;;11.80;99.90;;;;;;2602971;54;20920;31
2023/03/29 13:07:05;;;;;;;5.75;2.60;;;11.70;99.90;;;;;;2621439;46;20046;31
2023/03/29 13:09:50;;;;;;;6.70;2.58;;;11.70;99.90;;;;;;2603069;54;20033;31
2023/03/29 13:12:28;;;;;;;7.30;3.00;;;11.60;99.90;;;;;;2603183;54;20870;31
2023/03/29 13:15:24;;;;;;;4.88;2.53;;;11.60;99.90;;;;;;2621450;46;20052;31
2023/03/29 13:18:06;;;;;;;5.57;2.88;;;11.70;99.90;;;;;;2621598;46;20037;31
2023/03/29 13:20:45;;;;;;;4.97;2.63;;;11.80;99.90;;;;;;2603175;54;20042;31
2023/03/29 13:23:28;;;;;;;9.23;3.00;;;11.70;99.90;;;;;;2621950;47;20119;31
2023/03/29 13:26:12;;;;;;;5.78;2.42;;;11.60;99.90;;;;;;2604098;54;20026;31
2023/03/29 13:29:10;;;;;;;8.52;2.80;;;11.60;99.90;;;;;;2622311;46;20023;31
2023/03/29 13:31:51;;;;;;;8.45;3.33;;;11.60;99.90;;;;;;2603718;54;20026;31
2023/03/29 13:34:33;;;;;;;5.95;2.70;;;11.70;99.90;;;;;;2603798;54;20822;31
2023/03/29 13:37:15;;;;;;;4.17;1.97;;;11.70;99.90;;;;;;2603883;54;20018;31
2023/03/29 13:39:51;;;;;;;5.38;2.38;;;11.70;99.90;;;;;;2603757;54;20060;31
2023/03/29 13:42:28;;;;;;;9.77;3.35;;;11.70;99.90;;;;;;2622038;46;20907;31
2023/03/29 13:45:07;;;;;;;4.35;2.33;;;11.70;99.90;;;;;;2603184;54;20916;31
2023/03/29 13:47:46;;;;;;;5.38;3.05;;;11.80;99.90;;;;;;2603939;54;20820;31
2023/03/29 13:50:39;;;;;;;5.97;2.67;;;11.80;99.90;;;;;;2622016;46;20034;31
2023/03/29 13:53:17;;;;;;;4.65;2.35;;;11.90;99.90;;;;;;2622164;46;20031;31
2023/03/29 13:55:54;;;;;;;5.00;2.60;;;12.00;99.90;;;;;;2604033;54;20826;31
2023/03/29 13:58:35;;;;;;;6.87;2.00;;;11.90;99.90;;;;;;2604039;54;20874;31
2023/03/29 14:01:17;;;;;;;5.40;2.05;;;11.90;99.90;;;;;;2603950;54;20027;31
2023/03/29 14:03:56;;;;;;;4.88;2.72;;;11.90;99.90;;;;;;2603774;54;20120;31
2023/03/29 14:06:35;;;;;;;6.40;2.40;;;11.90;99.90;;;;;;2603535;54;20034;31
2023/03/29 14:09:14;;;;;;;4.55;2.60;;;11.90;99.90;;;;;;2603785;54;20870;31
2023/03/29 14:11:51;;;;;;;6.55;2.28;;;11.80;99.90;;;;;;2603661;54;20034;31
2023/03/29 14:14:30;;;;;;;6.65;2.20;;;11.80;99.90;;;;;;2603847;54;20061;31
2023/03/29 14:17:06;;;;;;;6.95;2.35;;;11.80;99.90;;;;;;2603157;54;20026;31
2023/03/29 14:19:45;;;;;;;5.90;3.25;;;11.80;99.90;;;;;;2603147;54;20030;31
2023/03/29 14:22:23;;;;;;;5.55;2.53;;;11.70;99.90;;;;;;2604082;54;20104;31
2023/03/29 14:24:58;;;;;;;5.25;2.38;;;11.70;99.90;;;;;;2622077;46;20048;31
2023/03/29 14:27:37;;;;;;;4.60;1.80;;;11.60;41.20;;;;;;2603666;54;20031;31
2023/03/29 14:30:12;;;;;;;4.75;2.28;;;11.60;63.30;;;;;;2603839;54;20705;31